Time;durP1;ratioP1;P1;durP2;ratioP2;P2;SDS_P1;SDS_P2;PMS_P1;PMS_P2;Temp;Humidity;BMP_temperature;BMP_pressure;BME280_temperature;BME280_humidity;BME280_pressure;Samples;Min_cycle;Max_cycle;Signal;HPM_P1;HPM_P2
2022/07/11 00:02:22;;;;;;;3.65;2.83;;;21.30;1.00;;;;;;5091775;28;20146;-80
2022/07/11 00:04:48;;;;;;;3.17;2.45;;;21.20;1.00;;;;;;5089644;28;20542;-80
2022/07/11 00:07:14;;;;;;;3.20;2.60;;;21.30;1.00;;;;;;5089571;28;20451;-80
2022/07/11 00:09:40;;;;;;;3.45;2.80;;;21.20;1.00;;;;;;5089710;28;20108;-80
2022/07/11 00:12:06;;;;;;;4.85;2.90;;;21.20;1.00;;;;;;5089741;28;20132;-80
2022/07/11 00:14:32;;;;;;;4.45;2.78;;;21.20;1.00;;;;;;5091859;28;20104;-81
2022/07/11 00:16:58;;;;;;;3.70;3.40;;;21.20;1.00;;;;;;5089363;28;20118;-81
2022/07/11 00:19:24;;;;;;;4.50;3.20;;;21.00;1.00;;;;;;5089504;28;20021;-81
2022/07/11 00:21:50;;;;;;;4.20;2.80;;;20.90;1.00;;;;;;5088261;28;20039;-81
2022/07/11 00:24:20;;;;;;;6.13;2.85;;;21.00;1.00;;;;;;5088057;28;20426;-81
2022/07/11 00:26:49;;;;;;;4.57;2.80;;;21.00;1.00;;;;;;5090502;28;20115;-81
2022/07/11 00:29:15;;;;;;;4.22;2.50;;;20.90;1.00;;;;;;5091432;28;20110;-81
2022/07/11 00:31:41;;;;;;;4.53;2.22;;;20.90;1.00;;;;;;5088986;28;20036;-81
2022/07/11 00:34:06;;;;;;;4.68;2.25;;;20.90;1.00;;;;;;5089248;28;20020;-81
2022/07/11 00:36:32;;;;;;;2.67;2.15;;;20.80;1.00;;;;;;5089321;28;20032;-81
2022/07/11 00:38:58;;;;;;;3.15;2.10;;;20.80;1.00;;;;;;5089437;28;20873;-81
2022/07/11 00:41:24;;;;;;;2.92;1.77;;;20.70;1.00;;;;;;5078906;28;20078;-80
2022/07/11 00:43:56;;;;;;;4.18;1.75;;;20.70;1.00;;;;;;5089498;28;20024;-80
2022/07/11 00:46:22;;;;;;;3.22;1.95;;;20.70;1.00;;;;;;5088872;28;20032;-80
2022/07/11 00:48:49;;;;;;;3.58;1.90;;;20.60;1.00;;;;;;5089282;28;20066;-80
2022/07/11 00:51:17;;;;;;;2.38;1.75;;;20.60;1.00;;;;;;5089336;28;20024;-81
2022/07/11 00:53:43;;;;;;;3.20;1.83;;;20.60;1.00;;;;;;5090781;28;20020;-81
2022/07/11 00:56:09;;;;;;;2.92;1.80;;;20.50;1.00;;;;;;5090228;28;20040;-80
2022/07/11 00:58:35;;;;;;;2.58;1.63;;;20.40;1.00;;;;;;5089386;28;20020;-81
2022/07/11 01:01:02;;;;;;;2.10;1.58;;;20.40;1.00;;;;;;5088878;28;20051;-80
2022/07/11 01:03:28;;;;;;;2.05;1.58;;;20.40;1.00;;;;;;5092927;28;20105;-81
2022/07/11 01:05:54;;;;;;;5.65;1.52;;;20.40;1.00;;;;;;5092981;28;20032;-81
2022/07/11 01:08:19;;;;;;;1.98;1.20;;;20.30;1.00;;;;;;5094757;28;20016;-81
2022/07/11 01:10:46;;;;;;;2.75;1.55;;;20.30;1.00;;;;;;5092557;28;20032;-80
2022/07/11 01:13:11;;;;;;;2.65;1.30;;;20.20;1.00;;;;;;5092261;28;20024;-81
2022/07/11 01:15:37;;;;;;;1.77;1.50;;;20.30;1.00;;;;;;5092451;28;20043;-80
2022/07/11 01:18:03;;;;;;;3.60;1.40;;;20.20;1.00;;;;;;5092517;28;20029;-81
2022/07/11 01:20:29;;;;;;;5.68;1.60;;;20.20;1.00;;;;;;5094221;28;20423;-80
2022/07/11 01:23:01;;;;;;;3.17;1.23;;;20.20;1.00;;;;;;5092237;28;20024;-81
2022/07/11 01:25:30;;;;;;;2.53;1.52;;;20.30;1.00;;;;;;5091837;28;20519;-81
2022/07/11 01:28:00;;;;;;;5.63;1.80;;;20.20;1.00;;;;;;5091901;28;20128;-81
2022/07/11 01:30:27;;;;;;;5.35;1.80;;;20.20;1.00;;;;;;5092024;28;20040;-81
2022/07/11 01:32:54;;;;;;;2.92;1.70;;;20.00;1.00;;;;;;5092027;28;20431;-80
2022/07/11 01:35:20;;;;;;;1.88;1.60;;;19.80;1.00;;;;;;5094115;28;20039;-81
2022/07/11 01:37:46;;;;;;;2.53;1.60;;;19.50;1.00;;;;;;5092097;28;20024;-80
2022/07/11 01:40:12;;;;;;;2.85;1.50;;;19.30;1.00;;;;;;5090300;28;20024;-81
2022/07/11 01:42:38;;;;;;;3.90;1.70;;;19.30;1.00;;;;;;5093269;28;20107;-81
2022/07/11 01:45:04;;;;;;;1.92;1.45;;;19.30;1.00;;;;;;5092013;28;20063;-80
2022/07/11 01:47:29;;;;;;;3.10;1.40;;;19.50;1.00;;;;;;5094437;28;20085;-80
2022/07/11 01:49:55;;;;;;;3.15;1.42;;;19.50;1.00;;;;;;5091794;28;20028;-80
2022/07/11 01:52:21;;;;;;;1.83;1.45;;;19.40;1.00;;;;;;5092477;28;20031;-80
2022/07/11 01:54:47;;;;;;;1.67;1.33;;;19.40;1.00;;;;;;5091469;28;20514;-80
2022/07/11 01:57:13;;;;;;;3.28;1.45;;;19.30;1.00;;;;;;5091614;28;20107;-80
2022/07/11 01:59:39;;;;;;;3.95;1.75;;;19.10;1.00;;;;;;5092878;28;20103;-80
2022/07/11 02:02:05;;;;;;;3.00;1.60;;;18.90;1.00;;;;;;5090681;28;20119;-81
2022/07/11 02:04:31;;;;;;;2.55;2.03;;;18.80;1.00;;;;;;5091437;28;20028;-81
2022/07/11 02:06:56;;;;;;;2.40;1.75;;;18.70;1.00;;;;;;5091052;28;20030;-80
2022/07/11 02:09:22;;;;;;;2.03;1.73;;;18.70;1.00;;;;;;5091489;28;20059;-80
2022/07/11 02:11:48;;;;;;;1.73;1.33;;;18.80;1.00;;;;;;5092027;28;20106;-80
2022/07/11 02:14:13;;;;;;;4.47;1.60;;;18.80;1.00;;;;;;5092520;28;20017;-80
2022/07/11 02:16:39;;;;;;;3.05;1.50;;;18.70;1.00;;;;;;5091106;28;20086;-80
2022/07/11 02:19:06;;;;;;;3.72;1.88;;;18.70;1.00;;;;;;5091694;28;20020;-80
2022/07/11 02:21:32;;;;;;;4.28;1.77;;;18.70;1.00;;;;;;5091236;28;20024;-80
2022/07/11 02:23:58;;;;;;;2.20;1.70;;;18.70;1.00;;;;;;5091505;28;20029;-80
2022/07/11 02:26:24;;;;;;;2.55;1.70;;;18.70;1.00;;;;;;5093165;28;20020;-81
2022/07/11 02:28:49;;;;;;;2.85;2.08;;;18.60;1.00;;;;;;5090455;28;20056;-80
2022/07/11 02:31:15;;;;;;;2.97;2.03;;;18.40;1.00;;;;;;5091352;28;20051;-80
2022/07/11 02:33:41;;;;;;;3.17;2.08;;;18.50;1.00;;;;;;5090968;28;20086;-80
2022/07/11 02:36:07;;;;;;;3.97;2.42;;;18.50;1.00;;;;;;5091114;28;20508;-80
2022/07/11 02:38:34;;;;;;;2.47;2.05;;;18.40;1.00;;;;;;5089018;28;20052;-80
2022/07/11 02:41:00;;;;;;;3.20;2.00;;;18.30;1.00;;;;;;5090839;28;20040;-80
2022/07/11 02:43:26;;;;;;;4.55;2.10;;;18.30;1.00;;;;;;5072387;28;20118;-80
2022/07/11 02:45:52;;;;;;;4.20;2.22;;;18.30;1.00;;;;;;5091206;28;20114;-80
2022/07/11 02:48:18;;;;;;;2.88;2.00;;;18.40;1.00;;;;;;5090845;28;20040;-80
2022/07/11 02:50:43;;;;;;;2.50;2.30;;;18.40;1.00;;;;;;5091990;28;20028;-80
2022/07/11 02:53:09;;;;;;;2.33;1.85;;;18.30;1.00;;;;;;5091670;28;20423;-80
2022/07/11 02:55:35;;;;;;;3.40;2.35;;;18.20;1.00;;;;;;5090657;28;20043;-80
2022/07/11 02:58:00;;;;;;;3.20;2.00;;;18.20;1.00;;;;;;5088896;28;20404;-80
2022/07/11 03:00:27;;;;;;;5.32;2.30;;;18.20;1.00;;;;;;5090951;28;20032;-80
2022/07/11 03:02:52;;;;;;;3.20;2.22;;;18.30;1.00;;;;;;5090548;28;20024;-80
2022/07/11 03:05:18;;;;;;;2.47;1.92;;;18.20;1.00;;;;;;5092621;28;20031;-80
2022/07/11 03:07:43;;;;;;;4.82;2.20;;;18.00;1.00;;;;;;5090230;28;20035;-80
2022/07/11 03:10:09;;;;;;;3.97;2.00;;;18.10;1.00;;;;;;5090628;28;20051;-80
2022/07/11 03:12:35;;;;;;;4.28;2.20;;;18.10;1.00;;;;;;5089953;28;20024;-80
2022/07/11 03:15:01;;;;;;;4.65;2.10;;;17.90;1.00;;;;;;5090463;28;20561;-81
2022/07/11 03:17:27;;;;;;;3.35;1.85;;;18.00;1.00;;;;;;5092796;28;20016;-80
2022/07/11 03:19:52;;;;;;;2.85;1.75;;;17.90;1.00;;;;;;5090267;28;20028;-80
2022/07/11 03:22:18;;;;;;;3.30;2.00;;;18.00;1.00;;;;;;5090226;28;20460;-80
2022/07/11 03:24:44;;;;;;;4.88;2.10;;;18.00;1.00;;;;;;5089280;28;20373;-80
2022/07/11 03:27:10;;;;;;;3.47;2.10;;;17.70;1.00;;;;;;5088633;28;20043;-80
2022/07/11 03:29:36;;;;;;;2.35;1.77;;;17.80;1.00;;;;;;5091899;28;20456;-80
2022/07/11 03:32:02;;;;;;;2.88;2.28;;;17.80;1.00;;;;;;5090436;28;20085;-80
2022/07/11 03:34:28;;;;;;;2.45;2.25;;;17.80;1.00;;;;;;5089981;28;20024;-80
2022/07/11 03:36:54;;;;;;;3.58;2.40;;;17.90;1.00;;;;;;5088597;28;20043;-80
2022/07/11 03:39:21;;;;;;;3.72;2.10;;;17.80;1.00;;;;;;5090017;28;21017;-80
2022/07/11 03:41:47;;;;;;;3.65;2.20;;;17.70;1.00;;;;;;5090340;28;20118;-80
2022/07/11 03:44:12;;;;;;;4.82;2.08;;;17.70;1.00;;;;;;5091755;28;20099;-80
2022/07/11 03:46:38;;;;;;;4.72;2.10;;;17.70;1.00;;;;;;5089875;28;20020;-80
2022/07/11 03:49:04;;;;;;;6.78;2.22;;;17.60;1.00;;;;;;5089924;28;20491;-80
2022/07/11 03:51:30;;;;;;;2.88;2.03;;;17.60;1.00;;;;;;5089827;28;20027;-80
2022/07/11 03:53:55;;;;;;;2.72;2.20;;;17.50;1.00;;;;;;5089911;28;20040;-80
2022/07/11 03:56:22;;;;;;;2.40;2.00;;;17.60;1.00;;;;;;5091986;28;20112;-80
2022/07/11 03:58:50;;;;;;;3.22;2.30;;;17.60;1.00;;;;;;5089680;28;20016;-80
2022/07/11 04:01:16;;;;;;;3.33;2.10;;;17.40;1.00;;;;;;5089705;28;20472;-79
2022/07/11 04:03:42;;;;;;;2.78;2.38;;;17.40;1.00;;;;;;5089477;28;20020;-80
2022/07/11 04:06:07;;;;;;;4.68;2.45;;;17.40;1.00;;;;;;5089874;28;20031;-80
2022/07/11 04:08:33;;;;;;;4.35;2.10;;;17.40;1.00;;;;;;5091658;28;20028;-80
2022/07/11 04:10:59;;;;;;;5.32;2.53;;;17.40;1.00;;;;;;5089174;28;20020;-80
2022/07/11 04:13:25;;;;;;;3.35;2.20;;;17.40;1.00;;;;;;5089722;28;20430;-80
2022/07/11 04:15:50;;;;;;;3.78;2.20;;;17.30;1.00;;;;;;5088041;28;20028;-80
2022/07/11 04:18:17;;;;;;;5.13;2.40;;;17.40;1.00;;;;;;5089598;28;20027;-80
2022/07/11 04:20:42;;;;;;;2.63;2.20;;;17.50;1.00;;;;;;5090504;28;20028;-80
2022/07/11 04:23:08;;;;;;;2.78;2.15;;;17.40;1.00;;;;;;5091179;28;20035;-80
2022/07/11 04:25:34;;;;;;;3.28;2.33;;;17.50;1.00;;;;;;5089133;28;20082;-82
2022/07/11 04:28:00;;;;;;;5.35;2.33;;;17.50;1.00;;;;;;5089242;28;20032;-79
2022/07/11 04:30:26;;;;;;;4.72;2.58;;;17.50;1.00;;;;;;5089892;28;20496;-80
2022/07/11 04:32:52;;;;;;;3.97;2.35;;;17.50;1.00;;;;;;5089201;28;20376;-80
2022/07/11 04:35:17;;;;;;;5.78;2.42;;;17.60;1.00;;;;;;5094272;28;20015;-80
2022/07/11 04:37:44;;;;;;;5.15;2.20;;;17.70;1.00;;;;;;5093151;28;20032;-80
2022/07/11 04:40:10;;;;;;;3.17;2.30;;;17.70;1.00;;;;;;5092782;28;20117;-80
2022/07/11 04:42:35;;;;;;;5.93;2.20;;;17.80;1.00;;;;;;5093561;28;20439;-80
2022/07/11 04:45:01;;;;;;;3.08;2.30;;;17.80;1.00;;;;;;5092942;28;20020;-80
2022/07/11 04:47:27;;;;;;;3.28;2.20;;;17.70;1.00;;;;;;5095261;28;20103;-80
2022/07/11 04:49:52;;;;;;;5.05;2.30;;;17.80;1.00;;;;;;5092832;28;20035;-80
2022/07/11 04:52:18;;;;;;;2.90;2.30;;;17.70;1.00;;;;;;5092492;28;20098;-79
2022/07/11 04:54:43;;;;;;;3.67;2.15;;;17.60;1.00;;;;;;5091375;28;20518;-80
2022/07/11 04:57:09;;;;;;;4.90;2.47;;;17.70;1.00;;;;;;5093307;28;20029;-80
2022/07/11 04:59:35;;;;;;;2.42;2.10;;;17.70;1.00;;;;;;5095564;28;20071;-80
2022/07/11 05:02:01;;;;;;;3.95;2.25;;;17.70;1.00;;;;;;5091433;28;20024;-80
2022/07/11 05:04:27;;;;;;;5.22;2.40;;;17.80;1.00;;;;;;5093286;28;20055;-80
2022/07/11 05:06:52;;;;;;;6.35;2.35;;;17.70;1.00;;;;;;5092161;28;20114;-80
2022/07/11 05:09:18;;;;;;;2.55;2.35;;;17.80;1.00;;;;;;5092802;28;20024;-80
2022/07/11 05:11:44;;;;;;;5.50;2.25;;;17.90;1.00;;;;;;5093600;28;20039;-80
2022/07/11 05:14:09;;;;;;;5.35;2.30;;;17.80;1.00;;;;;;5093451;28;20473;-80
2022/07/11 05:16:35;;;;;;;3.80;2.53;;;17.70;1.00;;;;;;5092330;28;20032;-80
2022/07/11 05:19:00;;;;;;;10.25;3.15;;;17.60;1.00;;;;;;5092176;28;20031;-82
2022/07/11 05:21:26;;;;;;;6.38;2.50;;;17.70;1.00;;;;;;5092079;28;20161;-82
2022/07/11 05:23:51;;;;;;;4.45;2.35;;;17.90;1.00;;;;;;5092600;28;20495;-84
2022/07/11 05:26:17;;;;;;;7.10;2.65;;;17.90;1.00;;;;;;5095024;28;20085;-83
2022/07/11 05:28:43;;;;;;;5.65;3.22;;;17.90;1.00;;;;;;5092624;28;20134;-82
2022/07/11 05:31:08;;;;;;;8.50;3.65;;;18.00;1.00;;;;;;5092456;28;20028;-82
2022/07/11 05:33:35;;;;;;;6.57;3.08;;;18.10;1.00;;;;;;5090987;28;20074;-83
2022/07/11 05:36:01;;;;;;;8.25;2.83;;;18.20;1.00;;;;;;5091924;28;20032;-83
2022/07/11 05:38:27;;;;;;;6.65;2.83;;;18.40;1.00;;;;;;5095214;28;20075;-83
2022/07/11 05:40:53;;;;;;;7.70;2.22;;;18.60;1.00;;;;;;5092117;28;20490;-83
2022/07/11 05:43:18;;;;;;;4.60;2.00;;;18.60;1.00;;;;;;5092416;28;20032;-83
2022/07/11 05:45:44;;;;;;;4.90;2.00;;;18.50;1.00;;;;;;5091417;28;20031;-80
2022/07/11 05:48:10;;;;;;;4.22;2.05;;;18.60;1.00;;;;;;5091473;28;20021;-80
2022/07/11 05:50:35;;;;;;;3.35;1.80;;;18.50;1.00;;;;;;5094263;28;20023;-80
2022/07/11 05:53:02;;;;;;;4.10;2.20;;;18.60;1.00;;;;;;5092543;28;20050;-80
2022/07/11 05:55:31;;;;;;;3.83;2.40;;;18.60;1.00;;;;;;5091302;28;20036;-81
2022/07/11 05:57:59;;;;;;;2.63;1.80;;;18.70;1.00;;;;;;5091482;28;20032;-80
2022/07/11 06:00:27;;;;;;;4.15;1.98;;;18.80;1.00;;;;;;5092127;28;20039;-80
2022/07/11 06:02:52;;;;;;;3.42;1.83;;;18.90;1.00;;;;;;5091446;28;20021;-80
2022/07/11 06:05:18;;;;;;;3.35;1.70;;;18.90;1.00;;;;;;5093184;28;20028;-80
2022/07/11 06:10:42;;;;;;;4.68;1.88;;;19.00;1.00;;;;;;5050262;28;20033;-80
2022/07/11 06:13:07;;;;;;;2.17;1.55;;;19.10;1.00;;;;;;5050474;28;20040;-80
2022/07/11 06:15:33;;;;;;;3.13;1.60;;;19.10;1.00;;;;;;5050455;28;20095;-80
2022/07/11 06:17:58;;;;;;;7.20;1.77;;;19.10;1.00;;;;;;5054021;28;20009;-81
2022/07/11 06:20:24;;;;;;;8.93;1.95;;;19.00;1.00;;;;;;5049751;28;20049;-81
2022/07/11 06:22:50;;;;;;;2.53;1.70;;;18.90;1.00;;;;;;5040097;28;20029;-81
2022/07/11 06:25:16;;;;;;;3.50;1.70;;;18.90;1.00;;;;;;5038962;28;20038;-81
2022/07/11 06:27:41;;;;;;;6.30;2.00;;;19.00;1.00;;;;;;5038685;28;20037;-81
2022/07/11 06:30:07;;;;;;;3.25;2.00;;;18.90;1.00;;;;;;5035083;28;20492;-81
2022/07/11 06:32:33;;;;;;;3.38;1.80;;;19.00;1.00;;;;;;5034823;28;20030;-80
2022/07/11 06:34:59;;;;;;;3.75;2.05;;;19.00;1.00;;;;;;5038412;28;20049;-81
2022/07/11 06:37:25;;;;;;;3.33;1.80;;;19.00;1.00;;;;;;5039080;28;20040;-81
2022/07/11 06:39:50;;;;;;;5.22;1.80;;;19.00;1.00;;;;;;5038764;28;20098;-80
2022/07/11 06:42:16;;;;;;;5.30;2.05;;;19.00;1.00;;;;;;5035738;28;20025;-80
2022/07/11 06:44:41;;;;;;;4.75;1.77;;;19.10;1.00;;;;;;5033764;28;20188;-80
2022/07/11 06:47:07;;;;;;;2.95;1.73;;;19.30;1.00;;;;;;5086594;28;20102;-80
2022/07/11 06:49:33;;;;;;;4.95;2.00;;;19.50;1.00;;;;;;5101763;28;20534;-81
2022/07/11 06:51:58;;;;;;;6.18;1.90;;;19.60;1.00;;;;;;5089253;28;20035;-81
2022/07/11 06:54:24;;;;;;;4.32;1.88;;;19.70;1.00;;;;;;5090625;28;20115;-82
2022/07/11 06:56:50;;;;;;;5.43;2.03;;;19.70;1.00;;;;;;5090829;28;20089;-81
2022/07/11 06:59:15;;;;;;;6.22;1.95;;;19.60;1.00;;;;;;5091617;28;20407;-82
2022/07/11 07:01:41;;;;;;;3.88;1.70;;;19.80;1.00;;;;;;5090199;28;20365;-82
2022/07/11 07:04:06;;;;;;;5.65;1.98;;;19.80;1.00;;;;;;5090034;28;20031;-81
2022/07/11 07:06:32;;;;;;;3.63;1.80;;;19.80;1.00;;;;;;5090073;28;20055;-81
2022/07/11 07:08:58;;;;;;;2.75;1.95;;;20.00;1.00;;;;;;5089986;28;20029;-81
2022/07/11 07:11:23;;;;;;;5.38;2.35;;;19.90;1.00;;;;;;5092242;28;20035;-82
2022/07/11 07:13:50;;;;;;;4.57;1.85;;;19.80;1.00;;;;;;5090236;28;20503;-82
2022/07/11 07:16:16;;;;;;;7.65;2.00;;;19.80;1.00;;;;;;5089980;28;20495;-81
2022/07/11 07:18:45;;;;;;;5.20;2.10;;;19.90;1.00;;;;;;5090185;28;20020;-87
2022/07/11 07:21:11;;;;;;;4.50;2.10;;;20.00;1.00;;;;;;5090891;28;20085;-78
2022/07/11 07:23:37;;;;;;;4.15;1.85;;;20.00;1.00;;;;;;5092242;28;20024;-81
2022/07/11 07:26:02;;;;;;;5.25;2.13;;;20.10;1.00;;;;;;5090635;28;20028;-80
2022/07/11 07:28:28;;;;;;;5.78;2.38;;;20.30;1.00;;;;;;5090191;28;20036;-79
2022/07/11 07:30:54;;;;;;;6.65;2.28;;;20.30;1.00;;;;;;5091346;28;20039;-82
2022/07/11 07:33:20;;;;;;;13.60;2.42;;;20.40;1.00;;;;;;5089803;28;20074;-81
2022/07/11 07:35:45;;;;;;;6.55;2.30;;;20.70;1.00;;;;;;5090922;28;20534;-81
2022/07/11 07:38:11;;;;;;;3.83;2.15;;;20.80;1.00;;;;;;5091020;28;20024;-87
2022/07/11 07:40:36;;;;;;;3.47;1.83;;;20.50;1.00;;;;;;5101027;28;20032;-85
2022/07/11 07:43:02;;;;;;;8.65;2.03;;;20.40;1.00;;;;;;5089839;28;20020;-80
2022/07/11 07:45:28;;;;;;;6.05;2.17;;;20.40;1.00;;;;;;5087798;28;20020;-81
2022/07/11 07:47:53;;;;;;;6.30;2.20;;;20.60;1.00;;;;;;5089745;28;20119;-81
2022/07/11 07:50:19;;;;;;;5.68;2.20;;;20.40;1.00;;;;;;5090253;28;20067;-80
2022/07/11 07:52:45;;;;;;;5.43;2.17;;;20.50;1.00;;;;;;5088312;28;20554;-80
2022/07/11 07:55:10;;;;;;;6.30;2.00;;;20.60;1.00;;;;;;5090270;28;20031;-80
2022/07/11 07:57:36;;;;;;;3.30;2.00;;;20.80;1.00;;;;;;5089642;28;20028;-80
2022/07/11 08:02:50;;;;;;;3.88;2.08;;;20.70;1.00;;;;;;5088027;28;20086;-88
2022/07/11 08:05:17;;;;;;;2.30;1.73;;;20.80;1.00;;;;;;5091598;28;20077;-81
2022/07/11 08:07:43;;;;;;;6.95;2.28;;;21.00;1.00;;;;;;5089560;28;20040;-82
2022/07/11 08:10:09;;;;;;;4.10;1.98;;;21.00;1.00;;;;;;5090516;28;20032;-82
2022/07/11 08:12:34;;;;;;;4.22;2.03;;;21.20;1.00;;;;;;5093908;28;20024;-81
2022/07/11 08:15:00;;;;;;;3.45;2.10;;;21.10;1.00;;;;;;5093486;28;20052;-81
2022/07/11 08:17:26;;;;;;;5.35;1.95;;;21.10;1.00;;;;;;5095888;28;20031;-81
2022/07/11 08:19:51;;;;;;;3.45;1.85;;;21.20;1.00;;;;;;5093413;28;20020;-81
2022/07/11 08:22:17;;;;;;;3.53;2.00;;;21.40;1.00;;;;;;5093207;28;20491;-81
2022/07/11 08:24:43;;;;;;;3.85;1.80;;;21.50;1.00;;;;;;5093135;28;20028;-81
2022/07/11 08:27:09;;;;;;;3.58;1.60;;;21.50;1.00;;;;;;5093561;28;20020;-81
2022/07/11 08:29:35;;;;;;;6.07;2.10;;;21.80;1.00;;;;;;5095367;28;20055;-81
2022/07/11 08:32:00;;;;;;;4.32;1.80;;;21.70;1.00;;;;;;5093134;28;20031;-81
2022/07/11 08:34:27;;;;;;;2.55;1.98;;;21.90;1.00;;;;;;5093271;28;20032;-81
2022/07/11 08:36:52;;;;;;;4.22;2.03;;;21.80;1.00;;;;;;5093112;28;20066;-81
2022/07/11 08:39:18;;;;;;;3.60;1.95;;;21.90;1.00;;;;;;5093451;28;20479;-81
2022/07/11 08:41:44;;;;;;;3.63;1.90;;;22.00;1.00;;;;;;5094750;28;20090;-81
2022/07/11 08:44:14;;;;;;;4.13;2.00;;;22.10;1.00;;;;;;5094054;28;20111;-81
2022/07/11 08:46:43;;;;;;;1.90;1.80;;;22.10;1.00;;;;;;5092730;28;20114;-81
2022/07/11 08:49:11;;;;;;;6.45;1.90;;;21.90;1.00;;;;;;5091499;28;20020;-81
2022/07/11 08:51:37;;;;;;;3.05;1.90;;;21.80;1.00;;;;;;5093062;28;20046;-78
2022/07/11 08:54:03;;;;;;;5.40;2.30;;;21.90;1.00;;;;;;5093236;28;20453;-81
2022/07/11 08:56:30;;;;;;;3.83;2.10;;;22.00;1.00;;;;;;5095053;28;20131;-81
2022/07/11 08:58:58;;;;;;;4.00;2.22;;;22.00;1.00;;;;;;5092414;28;20034;-80
2022/07/11 09:01:36;;;;;;;4.97;1.92;;;21.90;1.00;;;;;;5092588;28;20028;-80
2022/07/11 09:04:02;;;;;;;3.70;2.03;;;22.00;1.00;;;;;;5092560;28;20020;-81
2022/07/11 09:06:28;;;;;;;3.28;1.92;;;21.90;1.00;;;;;;5092686;28;20038;-81
2022/07/11 09:08:59;;;;;;;3.90;1.90;;;22.00;1.00;;;;;;5092865;28;20077;-81
2022/07/11 09:11:25;;;;;;;5.82;2.00;;;22.30;1.00;;;;;;5094383;28;20388;-81
2022/07/11 09:13:50;;;;;;;2.35;1.95;;;22.40;1.00;;;;;;5092017;28;20028;-81
2022/07/11 09:16:19;;;;;;;4.53;2.10;;;22.50;1.00;;;;;;5092825;28;20090;-81
2022/07/11 09:18:44;;;;;;;3.63;2.20;;;22.40;1.00;;;;;;5092519;28;20028;-81
2022/07/11 09:26:48;;;;;;;4.72;1.85;;;22.80;1.00;;;;;;5090717;28;20047;-81
2022/07/11 09:29:17;;;;;;;2.67;2.10;;;23.00;1.00;;;;;;5093424;28;20040;-81
2022/07/11 09:31:47;;;;;;;3.25;2.03;;;23.10;1.00;;;;;;5092608;28;20024;-81
2022/07/11 09:34:21;;;;;;;3.70;1.90;;;23.10;1.00;;;;;;5092040;28;20020;-81
2022/07/11 09:36:49;;;;;;;3.53;2.10;;;23.30;1.00;;;;;;5091977;28;20035;-81
2022/07/11 09:39:22;;;;;;;4.32;2.00;;;23.50;1.00;;;;;;5092088;28;20024;-81
2022/07/11 09:41:51;;;;;;;3.35;2.15;;;23.50;1.00;;;;;;5093032;28;20024;-81
2022/07/11 09:44:28;;;;;;;2.60;2.15;;;23.60;1.00;;;;;;5091498;28;20096;-81
2022/07/11 09:46:56;;;;;;;4.00;2.10;;;23.60;1.00;;;;;;5092171;28;20038;-81
2022/07/11 09:49:36;;;;;;;2.67;2.00;;;23.90;1.00;;;;;;5091815;28;20032;-81
2022/07/11 09:52:13;;;;;;;2.42;1.98;;;23.90;1.00;;;;;;5091652;28;20396;-81
2022/07/11 09:55:00;;;;;;;3.40;2.13;;;23.70;1.00;;;;;;5092026;28;20058;-81
2022/07/11 09:57:30;;;;;;;3.88;1.92;;;23.80;1.00;;;;;;5078164;28;20078;-81
2022/07/11 09:59:55;;;;;;;2.95;1.90;;;23.60;1.00;;;;;;5091477;28;20019;-82
2022/07/11 10:02:22;;;;;;;4.57;2.08;;;23.80;1.00;;;;;;5093648;28;20037;-80
2022/07/11 10:04:48;;;;;;;4.03;2.03;;;23.80;1.00;;;;;;5092363;28;20115;-80
2022/07/11 10:07:14;;;;;;;3.67;2.15;;;23.90;1.00;;;;;;5090024;28;20062;-81
2022/07/11 10:09:39;;;;;;;5.65;2.42;;;23.80;1.00;;;;;;5092652;28;20066;-81
2022/07/11 10:12:07;;;;;;;4.57;2.63;;;23.70;1.00;;;;;;5078016;28;20028;-79
2022/07/11 10:14:36;;;;;;;4.65;2.45;;;23.70;1.00;;;;;;5090254;28;20025;-80
2022/07/11 10:17:47;;;;;;;4.38;2.22;;;23.90;1.00;;;;;;5091512;28;20047;-80
2022/07/11 10:20:31;;;;;;;3.47;2.08;;;24.10;1.00;;;;;;5018094;28;20045;-80
2022/07/11 10:23:04;;;;;;;3.03;2.30;;;24.10;1.00;;;;;;5019031;28;20044;-80
2022/07/11 10:25:32;;;;;;;4.70;2.10;;;24.20;1.00;;;;;;5019041;28;20271;-81
2022/07/11 10:28:35;;;;;;;3.45;2.03;;;24.20;1.00;;;;;;5018842;28;20029;-80
2022/07/11 10:31:01;;;;;;;3.92;2.10;;;24.30;1.00;;;;;;5019058;28;20097;-80
2022/07/11 10:33:28;;;;;;;5.03;2.30;;;24.40;1.00;;;;;;5017045;28;20048;-80
2022/07/11 10:35:55;;;;;;;2.85;2.20;;;24.40;1.00;;;;;;5014663;28;20041;-80
2022/07/11 10:38:23;;;;;;;4.18;2.30;;;24.50;1.00;;;;;;5017112;28;20030;-80
2022/07/11 10:40:54;;;;;;;4.07;2.40;;;24.50;1.00;;;;;;5018408;28;20069;-80
2022/07/11 10:43:22;;;;;;;4.82;2.40;;;24.50;1.00;;;;;;5019483;28;20077;-81
2022/07/11 10:45:56;;;;;;;3.65;2.30;;;24.50;1.00;;;;;;5020126;28;20033;-80
2022/07/11 10:48:22;;;;;;;3.65;2.10;;;24.60;1.00;;;;;;5030460;28;20052;-80
2022/07/11 10:51:11;;;;;;;5.70;2.30;;;24.70;1.00;;;;;;5014650;28;20022;-80
2022/07/11 10:53:47;;;;;;;3.17;1.90;;;24.80;1.00;;;;;;5008472;28;20111;-80
2022/07/11 10:56:44;;;;;;;3.75;2.40;;;24.80;1.00;;;;;;5085755;28;20451;-80
2022/07/11 10:59:17;;;;;;;3.10;2.20;;;24.90;1.00;;;;;;5091801;28;20028;-80
2022/07/11 11:02:11;;;;;;;8.98;2.17;;;24.90;1.00;;;;;;5091050;28;20109;-80
2022/07/11 11:04:43;;;;;;;4.55;2.08;;;24.90;1.00;;;;;;5090746;28;20070;-90
2022/07/11 11:07:32;;;;;;;3.10;2.45;;;25.00;1.00;;;;;;5090874;28;20032;-85
2022/07/11 11:09:58;;;;;;;3.85;2.20;;;25.00;1.00;;;;;;5090365;28;20027;-81
2022/07/11 11:13:14;;;;;;;5.20;2.70;;;25.20;1.00;;;;;;5090550;28;20027;-79
2022/07/11 11:15:46;;;;;;;5.35;2.42;;;25.20;1.00;;;;;;5038415;28;20049;-81
2022/07/11 11:18:24;;;;;;;3.60;2.22;;;25.30;1.00;;;;;;5048965;28;20029;-81
2022/07/11 11:21:06;;;;;;;3.35;2.30;;;25.60;1.00;;;;;;5047254;28;20041;-81
2022/07/11 11:24:02;;;;;;;5.13;3.00;;;25.40;1.00;;;;;;5049439;28;20034;-81
2022/07/11 11:26:49;;;;;;;4.45;2.30;;;25.40;1.00;;;;;;5049042;28;20161;-81
2022/07/11 11:29:23;;;;;;;5.07;2.55;;;25.40;1.00;;;;;;5049266;28;20059;-81
2022/07/11 11:31:52;;;;;;;3.15;2.28;;;25.30;1.00;;;;;;5049219;28;20056;-81
2022/07/11 11:34:18;;;;;;;3.30;2.15;;;25.50;1.00;;;;;;5049461;28;20025;-82
2022/07/11 11:36:51;;;;;;;4.07;2.42;;;25.60;1.00;;;;;;5048466;28;20033;-81
2022/07/11 11:39:42;;;;;;;3.92;2.72;;;25.80;1.00;;;;;;5049443;28;20032;-81
2022/07/11 11:42:11;;;;;;;5.25;2.53;;;25.90;1.00;;;;;;5045554;28;20052;-82
2022/07/11 11:44:49;;;;;;;3.10;2.40;;;25.80;1.00;;;;;;5045252;28;20223;-81
2022/07/11 11:47:15;;;;;;;5.40;2.45;;;25.90;1.00;;;;;;5049355;28;20493;-82
2022/07/11 11:49:42;;;;;;;2.80;2.50;;;26.10;1.00;;;;;;5048973;28;20555;-82
2022/07/11 11:52:08;;;;;;;3.45;2.25;;;26.20;1.00;;;;;;5058902;28;20029;-82
2022/07/11 11:54:33;;;;;;;3.42;2.58;;;26.60;1.00;;;;;;5069439;28;20040;-82
2022/07/11 11:57:07;;;;;;;6.82;2.70;;;26.80;1.00;;;;;;5069795;28;20033;-81
2022/07/11 11:59:33;;;;;;;4.57;2.70;;;27.30;1.00;;;;;;5071614;28;20389;-82
2022/07/11 12:01:59;;;;;;;2.60;2.30;;;27.70;1.00;;;;;;5069382;28;20028;-82
2022/07/11 12:04:24;;;;;;;3.50;2.38;;;28.70;1.00;;;;;;5068375;28;20166;-81
2022/07/11 12:06:50;;;;;;;4.65;2.40;;;29.90;1.00;;;;;;5068945;28;20491;-79
2022/07/11 12:14:50;;;;;;;4.40;2.50;;;34.70;1.00;;;;;;5068056;28;20032;-81
2022/07/11 12:17:15;;;;;;;3.22;2.40;;;36.30;1.00;;;;;;5071524;28;20032;-81
2022/07/11 12:19:43;;;;;;;3.47;2.22;;;37.30;1.00;;;;;;5069272;28;20414;-81
2022/07/11 12:22:09;;;;;;;5.18;2.35;;;35.60;1.00;;;;;;5068450;28;20055;-81
2022/07/11 12:24:34;;;;;;;3.58;2.00;;;36.30;1.00;;;;;;5068773;28;20025;-82
2022/07/11 12:27:00;;;;;;;2.40;2.20;;;37.00;1.00;;;;;;5069224;28;20029;-81
2022/07/11 12:29:27;;;;;;;3.28;2.40;;;37.80;1.00;;;;;;5087374;28;20138;-82
2022/07/11 12:31:59;;;;;;;4.40;2.10;;;37.40;1.00;;;;;;5088943;28;20024;-82
2022/07/11 12:34:31;;;;;;;3.80;2.10;;;37.10;1.00;;;;;;5089362;28;20460;-82
2022/07/11 12:37:12;;;;;;;3.13;2.10;;;37.90;1.00;;;;;;5089089;28;20496;-82
2022/07/11 12:39:46;;;;;;;2.75;2.25;;;37.80;1.00;;;;;;5089405;28;20047;-82
2022/07/11 12:42:22;;;;;;;1.98;1.88;;;38.50;1.00;;;;;;5074021;28;20392;-80
2022/07/11 12:45:09;;;;;;;2.38;2.10;;;37.90;1.00;;;;;;5090593;28;20379;-80
2022/07/11 12:47:36;;;;;;;3.00;1.85;;;38.00;1.00;;;;;;5086789;28;20040;-82
2022/07/11 12:50:19;;;;;;;3.58;2.10;;;37.00;1.00;;;;;;5089793;28;20024;-82
2022/07/11 12:52:49;;;;;;;3.22;2.10;;;37.40;1.00;;;;;;5088049;28;20024;-82
2022/07/11 12:55:21;;;;;;;2.55;1.98;;;38.60;1.00;;;;;;5089892;28;20031;-82
2022/07/11 12:58:13;;;;;;;8.25;2.33;;;37.90;1.00;;;;;;5092759;28;20024;-82
2022/07/11 13:00:57;;;;;;;2.38;2.00;;;36.50;1.00;;;;;;5092382;28;20024;-82
2022/07/11 13:03:29;;;;;;;4.47;2.30;;;36.60;1.00;;;;;;5078687;28;20048;-82
2022/07/11 13:05:56;;;;;;;2.97;2.15;;;36.60;1.00;;;;;;5092116;28;20032;-82
2022/07/11 13:08:42;;;;;;;3.20;2.10;;;37.10;1.00;;;;;;5094812;28;20032;-82
2022/07/11 13:11:09;;;;;;;2.80;2.30;;;36.60;1.00;;;;;;5092122;28;20081;-82
2022/07/11 13:13:34;;;;;;;3.70;2.30;;;36.10;1.00;;;;;;5092471;28;20412;-82
2022/07/11 13:16:01;;;;;;;3.35;2.08;;;36.20;1.00;;;;;;5092374;28;20031;-82
2022/07/11 13:18:27;;;;;;;2.58;2.08;;;36.40;1.00;;;;;;5092899;28;20035;-82
2022/07/11 13:20:54;;;;;;;2.10;1.90;;;36.00;1.00;;;;;;5092949;28;20400;-82